sensor_id;sensor_type;location;lat;lon;timestamp;temperature;humidity
45491;DHT22;31237;45.586;13.782;2023-07-13T00:02:24;25.10;80.60
45491;DHT22;31237;45.586;13.782;2023-07-13T00:04:50;25.10;80.00
45491;DHT22;31237;45.586;13.782;2023-07-13T00:07:16;25.20;79.80
45491;DHT22;31237;45.586;13.782;2023-07-13T00:09:44;25.20;79.50
45491;DHT22;31237;45.586;13.782;2023-07-13T00:12:32;25.20;79.20
45491;DHT22;31237;45.586;13.782;2023-07-13T00:15:01;25.30;78.90
45491;DHT22;31237;45.586;13.782;2023-07-13T00:17:28;25.20;78.60
45491;DHT22;31237;45.586;13.782;2023-07-13T00:19:55;25.30;78.50
45491;DHT22;31237;45.586;13.782;2023-07-13T00:22:22;25.20;78.20
45491;DHT22;31237;45.586;13.782;2023-07-13T00:24:49;25.20;78.00
45491;DHT22;31237;45.586;13.782;2023-07-13T00:27:18;25.30;78.00
45491;DHT22;31237;45.586;13.782;2023-07-13T00:29:44;25.30;77.90
45491;DHT22;31237;45.586;13.782;2023-07-13T00:32:10;25.20;77.90
45491;DHT22;31237;45.586;13.782;2023-07-13T00:34:37;25.20;77.90
45491;DHT22;31237;45.586;13.782;2023-07-13T00:37:04;25.20;78.50
45491;DHT22;31237;45.586;13.782;2023-07-13T00:39:32;25.20;77.90
45491;DHT22;31237;45.586;13.782;2023-07-13T00:41:59;25.20;77.90
45491;DHT22;31237;45.586;13.782;2023-07-13T00:44:24;25.20;77.90
45491;DHT22;31237;45.586;13.782;2023-07-13T00:46:50;25.20;77.90
45491;DHT22;31237;45.586;13.782;2023-07-13T00:49:23;25.20;77.90
45491;DHT22;31237;45.586;13.782;2023-07-13T00:51:53;25.20;77.80
45491;DHT22;31237;45.586;13.782;2023-07-13T00:54:24;25.20;77.70
45491;DHT22;31237;45.586;13.782;2023-07-13T00:56:54;25.10;77.50
45491;DHT22;31237;45.586;13.782;2023-07-13T00:59:21;25.20;77.40
45491;DHT22;31237;45.586;13.782;2023-07-13T01:01:59;25.10;77.20
45491;DHT22;31237;45.586;13.782;2023-07-13T01:04:26;25.20;77.20
45491;DHT22;31237;45.586;13.782;2023-07-13T01:06:52;25.10;77.20
45491;DHT22;31237;45.586;13.782;2023-07-13T01:09:20;25.10;77.30
45491;DHT22;31237;45.586;13.782;2023-07-13T01:11:46;25.10;77.30
45491;DHT22;31237;45.586;13.782;2023-07-13T01:14:13;25.20;77.40
45491;DHT22;31237;45.586;13.782;2023-07-13T01:16:41;25.20;77.30
45491;DHT22;31237;45.586;13.782;2023-07-13T01:19:32;25.20;78.70
45491;DHT22;31237;45.586;13.782;2023-07-13T01:22:02;25.00;79.70
45491;DHT22;31237;45.586;13.782;2023-07-13T01:24:28;24.70;81.30
45491;DHT22;31237;45.586;13.782;2023-07-13T01:26:55;24.40;82.10
45491;DHT22;31237;45.586;13.782;2023-07-13T01:29:22;24.10;83.20
45491;DHT22;31237;45.586;13.782;2023-07-13T01:31:47;23.80;85.20
45491;DHT22;31237;45.586;13.782;2023-07-13T01:34:13;23.40;87.50
45491;DHT22;31237;45.586;13.782;2023-07-13T01:36:39;23.20;89.20
45491;DHT22;31237;45.586;13.782;2023-07-13T01:39:05;23.00;90.00
45491;DHT22;31237;45.586;13.782;2023-07-13T01:41:30;23.00;90.30
45491;DHT22;31237;45.586;13.782;2023-07-13T01:43:56;22.90;90.40
45491;DHT22;31237;45.586;13.782;2023-07-13T01:46:22;23.00;90.40
45491;DHT22;31237;45.586;13.782;2023-07-13T01:48:47;23.00;90.30
45491;DHT22;31237;45.586;13.782;2023-07-13T01:51:15;23.10;90.10
45491;DHT22;31237;45.586;13.782;2023-07-13T01:53:40;23.20;89.90
45491;DHT22;31237;45.586;13.782;2023-07-13T01:56:06;23.30;89.40
45491;DHT22;31237;45.586;13.782;2023-07-13T01:58:32;23.30;88.80
45491;DHT22;31237;45.586;13.782;2023-07-13T02:00:58;23.40;88.50
45491;DHT22;31237;45.586;13.782;2023-07-13T02:03:23;23.50;88.30
45491;DHT22;31237;45.586;13.782;2023-07-13T02:05:49;23.50;88.00
45491;DHT22;31237;45.586;13.782;2023-07-13T02:08:15;23.60;87.90
45491;DHT22;31237;45.586;13.782;2023-07-13T02:10:40;23.50;87.90
45491;DHT22;31237;45.586;13.782;2023-07-13T02:13:06;23.50;87.80
45491;DHT22;31237;45.586;13.782;2023-07-13T02:15:33;23.60;87.90
45491;DHT22;31237;45.586;13.782;2023-07-13T02:17:58;23.50;87.90
45491;DHT22;31237;45.586;13.782;2023-07-13T02:20:25;23.60;88.10
45491;DHT22;31237;45.586;13.782;2023-07-13T02:22:51;23.50;88.10
45491;DHT22;31237;45.586;13.782;2023-07-13T02:25:17;23.50;88.20
45491;DHT22;31237;45.586;13.782;2023-07-13T02:27:43;23.50;88.30
45491;DHT22;31237;45.586;13.782;2023-07-13T02:30:09;23.50;88.30
45491;DHT22;31237;45.586;13.782;2023-07-13T02:32:36;23.50;88.40
45491;DHT22;31237;45.586;13.782;2023-07-13T02:35:02;23.50;88.40
45491;DHT22;31237;45.586;13.782;2023-07-13T02:37:28;23.40;88.50
45491;DHT22;31237;45.586;13.782;2023-07-13T02:39:55;23.40;88.50
45491;DHT22;31237;45.586;13.782;2023-07-13T02:42:21;23.40;88.50
45491;DHT22;31237;45.586;13.782;2023-07-13T02:44:46;23.40;88.50
45491;DHT22;31237;45.586;13.782;2023-07-13T02:47:12;23.40;88.60
45491;DHT22;31237;45.586;13.782;2023-07-13T02:49:38;23.40;88.70
45491;DHT22;31237;45.586;13.782;2023-07-13T02:52:05;23.30;88.60
45491;DHT22;31237;45.586;13.782;2023-07-13T02:54:30;23.30;88.70
45491;DHT22;31237;45.586;13.782;2023-07-13T02:56:56;23.30;88.70
45491;DHT22;31237;45.586;13.782;2023-07-13T02:59:22;23.30;88.80
45491;DHT22;31237;45.586;13.782;2023-07-13T03:01:48;23.30;88.90
45491;DHT22;31237;45.586;13.782;2023-07-13T03:04:13;23.20;88.90
45491;DHT22;31237;45.586;13.782;2023-07-13T03:06:39;23.30;89.00
45491;DHT22;31237;45.586;13.782;2023-07-13T03:09:05;23.30;89.00
45491;DHT22;31237;45.586;13.782;2023-07-13T03:11:31;23.20;88.90
45491;DHT22;31237;45.586;13.782;2023-07-13T03:13:58;23.20;89.00
45491;DHT22;31237;45.586;13.782;2023-07-13T03:16:24;23.20;89.00
45491;DHT22;31237;45.586;13.782;2023-07-13T03:18:49;23.20;89.00
45491;DHT22;31237;45.586;13.782;2023-07-13T03:21:16;23.20;88.90
45491;DHT22;31237;45.586;13.782;2023-07-13T03:23:41;23.20;88.90
45491;DHT22;31237;45.586;13.782;2023-07-13T03:26:19;23.20;88.90
45491;DHT22;31237;45.586;13.782;2023-07-13T03:28:45;23.30;88.80
45491;DHT22;31237;45.586;13.782;2023-07-13T03:31:17;23.20;88.70
45491;DHT22;31237;45.586;13.782;2023-07-13T03:33:43;23.30;88.70
45491;DHT22;31237;45.586;13.782;2023-07-13T03:36:17;23.30;88.60
45491;DHT22;31237;45.586;13.782;2023-07-13T03:38:48;23.30;88.50
45491;DHT22;31237;45.586;13.782;2023-07-13T03:41:15;23.30;88.50
45491;DHT22;31237;45.586;13.782;2023-07-13T03:43:42;23.30;88.30
45491;DHT22;31237;45.586;13.782;2023-07-13T03:46:08;23.30;88.20
45491;DHT22;31237;45.586;13.782;2023-07-13T03:48:34;23.30;88.10
45491;DHT22;31237;45.586;13.782;2023-07-13T03:51:00;23.30;87.90
45491;DHT22;31237;45.586;13.782;2023-07-13T03:53:26;23.30;87.70
45491;DHT22;31237;45.586;13.782;2023-07-13T03:55:52;23.40;87.60
45491;DHT22;31237;45.586;13.782;2023-07-13T03:58:32;23.30;87.50
45491;DHT22;31237;45.586;13.782;2023-07-13T04:00:59;23.40;87.40
45491;DHT22;31237;45.586;13.782;2023-07-13T04:03:26;23.30;87.20
45491;DHT22;31237;45.586;13.782;2023-07-13T04:05:56;23.40;87.10
45491;DHT22;31237;45.586;13.782;2023-07-13T04:08:27;23.40;86.80
45491;DHT22;31237;45.586;13.782;2023-07-13T04:10:53;23.40;86.50
45491;DHT22;31237;45.586;13.782;2023-07-13T04:13:19;23.40;86.20
45491;DHT22;31237;45.586;13.782;2023-07-13T04:15:45;23.50;86.00
45491;DHT22;31237;45.586;13.782;2023-07-13T04:18:10;23.50;85.70
45491;DHT22;31237;45.586;13.782;2023-07-13T04:20:36;23.60;85.50
45491;DHT22;31237;45.586;13.782;2023-07-13T04:23:02;23.60;85.10
45491;DHT22;31237;45.586;13.782;2023-07-13T04:25:28;23.60;84.60
45491;DHT22;31237;45.586;13.782;2023-07-13T04:27:54;23.70;84.30
45491;DHT22;31237;45.586;13.782;2023-07-13T04:30:20;23.70;84.00
45491;DHT22;31237;45.586;13.782;2023-07-13T04:32:46;23.70;83.70
45491;DHT22;31237;45.586;13.782;2023-07-13T04:35:12;23.70;83.40
45491;DHT22;31237;45.586;13.782;2023-07-13T04:37:39;23.80;83.30
45491;DHT22;31237;45.586;13.782;2023-07-13T04:40:05;23.80;83.10
45491;DHT22;31237;45.586;13.782;2023-07-13T04:42:31;23.80;82.90
45491;DHT22;31237;45.586;13.782;2023-07-13T04:44:59;23.80;82.80
45491;DHT22;31237;45.586;13.782;2023-07-13T04:47:25;23.90;82.70
45491;DHT22;31237;45.586;13.782;2023-07-13T04:49:51;23.90;82.50
45491;DHT22;31237;45.586;13.782;2023-07-13T04:52:16;23.90;82.30
45491;DHT22;31237;45.586;13.782;2023-07-13T04:54:42;23.90;82.20
45491;DHT22;31237;45.586;13.782;2023-07-13T04:57:08;23.90;81.90
45491;DHT22;31237;45.586;13.782;2023-07-13T04:59:34;24.00;81.90
45491;DHT22;31237;45.586;13.782;2023-07-13T05:02:00;24.00;81.80
45491;DHT22;31237;45.586;13.782;2023-07-13T05:04:27;24.00;81.60
45491;DHT22;31237;45.586;13.782;2023-07-13T05:06:53;24.00;81.40
45491;DHT22;31237;45.586;13.782;2023-07-13T05:09:19;24.10;81.20
45491;DHT22;31237;45.586;13.782;2023-07-13T05:11:44;24.10;81.00
45491;DHT22;31237;45.586;13.782;2023-07-13T05:14:10;24.20;80.80
45491;DHT22;31237;45.586;13.782;2023-07-13T05:16:36;24.20;80.60
45491;DHT22;31237;45.586;13.782;2023-07-13T05:19:02;24.20;80.40
45491;DHT22;31237;45.586;13.782;2023-07-13T05:21:28;24.30;80.30
45491;DHT22;31237;45.586;13.782;2023-07-13T05:23:54;24.30;80.10
45491;DHT22;31237;45.586;13.782;2023-07-13T05:26:20;24.30;80.00
45491;DHT22;31237;45.586;13.782;2023-07-13T05:28:46;24.30;79.80
45491;DHT22;31237;45.586;13.782;2023-07-13T05:31:12;24.40;79.70
45491;DHT22;31237;45.586;13.782;2023-07-13T05:33:38;24.40;79.60
45491;DHT22;31237;45.586;13.782;2023-07-13T05:36:04;24.50;79.70
45491;DHT22;31237;45.586;13.782;2023-07-13T05:38:30;24.50;79.50
45491;DHT22;31237;45.586;13.782;2023-07-13T05:40:57;24.50;79.40
45491;DHT22;31237;45.586;13.782;2023-07-13T05:43:28;24.50;79.30
45491;DHT22;31237;45.586;13.782;2023-07-13T05:45:56;24.60;79.30
45491;DHT22;31237;45.586;13.782;2023-07-13T05:48:22;24.60;79.30
45491;DHT22;31237;45.586;13.782;2023-07-13T05:50:48;24.70;79.30
45491;DHT22;31237;45.586;13.782;2023-07-13T05:53:14;24.80;79.20
45491;DHT22;31237;45.586;13.782;2023-07-13T05:55:42;24.80;79.20
45491;DHT22;31237;45.586;13.782;2023-07-13T05:58:08;24.90;79.10
45491;DHT22;31237;45.586;13.782;2023-07-13T06:00:33;25.00;79.10
45491;DHT22;31237;45.586;13.782;2023-07-13T06:02:59;25.00;79.00
45491;DHT22;31237;45.586;13.782;2023-07-13T06:05:25;25.10;79.00
45491;DHT22;31237;45.586;13.782;2023-07-13T06:07:50;25.10;78.70
45491;DHT22;31237;45.586;13.782;2023-07-13T06:10:16;25.20;78.70
45491;DHT22;31237;45.586;13.782;2023-07-13T06:12:42;25.30;78.70
45491;DHT22;31237;45.586;13.782;2023-07-13T06:15:08;25.30;78.60
45491;DHT22;31237;45.586;13.782;2023-07-13T06:17:34;25.40;78.60
45491;DHT22;31237;45.586;13.782;2023-07-13T06:20:00;25.40;78.50
45491;DHT22;31237;45.586;13.782;2023-07-13T06:22:25;25.50;78.50
45491;DHT22;31237;45.586;13.782;2023-07-13T06:24:52;25.50;78.50
45491;DHT22;31237;45.586;13.782;2023-07-13T06:27:17;25.60;78.60
45491;DHT22;31237;45.586;13.782;2023-07-13T06:29:43;25.70;78.60
45491;DHT22;31237;45.586;13.782;2023-07-13T06:32:10;25.70;78.40
45491;DHT22;31237;45.586;13.782;2023-07-13T06:34:36;25.80;78.40
45491;DHT22;31237;45.586;13.782;2023-07-13T06:37:02;25.90;78.50
45491;DHT22;31237;45.586;13.782;2023-07-13T06:39:28;26.00;78.60
45491;DHT22;31237;45.586;13.782;2023-07-13T06:41:53;26.00;78.60
45491;DHT22;31237;45.586;13.782;2023-07-13T06:44:19;26.10;78.80
45491;DHT22;31237;45.586;13.782;2023-07-13T06:46:45;26.20;78.80
45491;DHT22;31237;45.586;13.782;2023-07-13T06:49:11;26.30;78.70
45491;DHT22;31237;45.586;13.782;2023-07-13T06:51:36;26.40;78.50
45491;DHT22;31237;45.586;13.782;2023-07-13T06:54:02;26.40;78.30
45491;DHT22;31237;45.586;13.782;2023-07-13T06:56:28;26.50;78.10
45491;DHT22;31237;45.586;13.782;2023-07-13T06:58:54;26.60;78.00
45491;DHT22;31237;45.586;13.782;2023-07-13T07:01:20;26.60;77.90
45491;DHT22;31237;45.586;13.782;2023-07-13T07:03:45;26.70;77.80
45491;DHT22;31237;45.586;13.782;2023-07-13T07:06:19;26.80;77.70
45491;DHT22;31237;45.586;13.782;2023-07-13T07:08:45;26.90;77.70
45491;DHT22;31237;45.586;13.782;2023-07-13T07:11:18;27.00;77.70
45491;DHT22;31237;45.586;13.782;2023-07-13T07:13:44;27.00;77.30
45491;DHT22;31237;45.586;13.782;2023-07-13T07:16:10;27.10;77.30
45491;DHT22;31237;45.586;13.782;2023-07-13T07:18:36;27.20;77.40
45491;DHT22;31237;45.586;13.782;2023-07-13T07:21:02;27.30;77.30
45491;DHT22;31237;45.586;13.782;2023-07-13T07:23:28;27.60;77.20
45491;DHT22;31237;45.586;13.782;2023-07-13T07:25:53;27.70;76.90
45491;DHT22;31237;45.586;13.782;2023-07-13T07:28:20;27.80;76.80
45491;DHT22;31237;45.586;13.782;2023-07-13T07:30:46;27.80;76.60
45491;DHT22;31237;45.586;13.782;2023-07-13T07:33:12;27.90;76.70
45491;DHT22;31237;45.586;13.782;2023-07-13T07:35:38;27.90;76.70
45491;DHT22;31237;45.586;13.782;2023-07-13T07:38:04;28.00;77.00
45491;DHT22;31237;45.586;13.782;2023-07-13T07:40:30;28.00;77.00
45491;DHT22;31237;45.586;13.782;2023-07-13T07:42:57;28.00;76.90
45491;DHT22;31237;45.586;13.782;2023-07-13T07:45:23;28.10;77.00
45491;DHT22;31237;45.586;13.782;2023-07-13T07:47:49;28.10;77.00
45491;DHT22;31237;45.586;13.782;2023-07-13T07:50:15;28.20;77.00
45491;DHT22;31237;45.586;13.782;2023-07-13T07:52:41;28.20;77.00
45491;DHT22;31237;45.586;13.782;2023-07-13T07:55:08;28.30;77.10
45491;DHT22;31237;45.586;13.782;2023-07-13T07:57:33;28.30;77.20
45491;DHT22;31237;45.586;13.782;2023-07-13T07:59:59;28.40;77.40
45491;DHT22;31237;45.586;13.782;2023-07-13T08:02:25;28.40;77.40
45491;DHT22;31237;45.586;13.782;2023-07-13T08:04:52;28.40;77.50
45491;DHT22;31237;45.586;13.782;2023-07-13T08:07:18;28.40;77.80
45491;DHT22;31237;45.586;13.782;2023-07-13T08:09:44;28.50;78.00
45491;DHT22;31237;45.586;13.782;2023-07-13T08:12:10;28.60;77.70
45491;DHT22;31237;45.586;13.782;2023-07-13T08:14:35;28.60;77.40
45491;DHT22;31237;45.586;13.782;2023-07-13T08:17:04;28.70;77.30
45491;DHT22;31237;45.586;13.782;2023-07-13T08:19:30;28.70;77.00
45491;DHT22;31237;45.586;13.782;2023-07-13T08:21:56;28.80;77.10
45491;DHT22;31237;45.586;13.782;2023-07-13T08:24:23;28.80;76.90
45491;DHT22;31237;45.586;13.782;2023-07-13T08:26:51;28.80;76.80
45491;DHT22;31237;45.586;13.782;2023-07-13T08:29:18;28.80;77.10
45491;DHT22;31237;45.586;13.782;2023-07-13T08:31:44;28.80;77.10
45491;DHT22;31237;45.586;13.782;2023-07-13T08:34:10;28.90;77.30
45491;DHT22;31237;45.586;13.782;2023-07-13T08:36:36;29.00;77.50
45491;DHT22;31237;45.586;13.782;2023-07-13T08:39:02;29.10;77.60
45491;DHT22;31237;45.586;13.782;2023-07-13T08:41:28;29.20;77.60
45491;DHT22;31237;45.586;13.782;2023-07-13T08:43:58;29.40;77.60
45491;DHT22;31237;45.586;13.782;2023-07-13T08:49:03;29.60;77.40
45491;DHT22;31237;45.586;13.782;2023-07-13T08:54:51;29.80;77.00
45491;DHT22;31237;45.586;13.782;2023-07-13T08:57:19;30.00;77.00
45491;DHT22;31237;45.586;13.782;2023-07-13T08:59:46;30.10;76.90
45491;DHT22;31237;45.586;13.782;2023-07-13T09:02:29;30.20;76.80
45491;DHT22;31237;45.586;13.782;2023-07-13T09:05:08;30.40;76.70
45491;DHT22;31237;45.586;13.782;2023-07-13T09:10:49;30.70;76.70
45491;DHT22;31237;45.586;13.782;2023-07-13T09:13:39;30.80;76.50
45491;DHT22;31237;45.586;13.782;2023-07-13T09:16:08;30.90;76.00
45491;DHT22;31237;45.586;13.782;2023-07-13T09:18:38;31.00;76.00
45491;DHT22;31237;45.586;13.782;2023-07-13T09:21:25;31.20;75.90
45491;DHT22;31237;45.586;13.782;2023-07-13T09:26:45;31.20;75.40
45491;DHT22;31237;45.586;13.782;2023-07-13T09:29:33;31.20;75.40
45491;DHT22;31237;45.586;13.782;2023-07-13T09:32:03;31.20;75.40
45491;DHT22;31237;45.586;13.782;2023-07-13T09:34:29;31.20;75.50
45491;DHT22;31237;45.586;13.782;2023-07-13T09:36:58;31.10;75.40
45491;DHT22;31237;45.586;13.782;2023-07-13T09:39:31;31.00;75.50
45491;DHT22;31237;45.586;13.782;2023-07-13T09:42:18;31.00;75.80
45491;DHT22;31237;45.586;13.782;2023-07-13T09:47:18;30.80;76.10
45491;DHT22;31237;45.586;13.782;2023-07-13T09:49:44;30.70;76.40
45491;DHT22;31237;45.586;13.782;2023-07-13T09:52:12;30.70;76.70
45491;DHT22;31237;45.586;13.782;2023-07-13T09:54:43;30.60;76.80
45491;DHT22;31237;45.586;13.782;2023-07-13T09:57:15;30.50;77.00
45491;DHT22;31237;45.586;13.782;2023-07-13T09:59:45;30.40;77.10
45491;DHT22;31237;45.586;13.782;2023-07-13T10:04:56;30.20;77.20
45491;DHT22;31237;45.586;13.782;2023-07-13T10:07:24;30.00;75.20
45491;DHT22;31237;45.586;13.782;2023-07-13T10:09:56;29.50;74.20
45491;DHT22;31237;45.586;13.782;2023-07-13T10:12:23;29.10;74.20
45491;DHT22;31237;45.586;13.782;2023-07-13T10:14:52;28.80;75.50
45491;DHT22;31237;45.586;13.782;2023-07-13T10:17:31;28.40;75.90
45491;DHT22;31237;45.586;13.782;2023-07-13T10:20:08;28.20;77.10
45491;DHT22;31237;45.586;13.782;2023-07-13T10:25:24;28.00;78.40
45491;DHT22;31237;45.586;13.782;2023-07-13T10:27:53;28.00;78.80
45491;DHT22;31237;45.586;13.782;2023-07-13T10:30:26;28.10;78.90
45491;DHT22;31237;45.586;13.782;2023-07-13T10:32:54;28.20;79.20
45491;DHT22;31237;45.586;13.782;2023-07-13T10:35:20;28.30;79.30
45491;DHT22;31237;45.586;13.782;2023-07-13T10:38:03;28.30;79.60
45491;DHT22;31237;45.586;13.782;2023-07-13T10:40:43;28.40;79.80
45491;DHT22;31237;45.586;13.782;2023-07-13T10:43:25;28.60;79.60
45491;DHT22;31237;45.586;13.782;2023-07-13T10:45:54;28.70;79.40
45491;DHT22;31237;45.586;13.782;2023-07-13T10:48:21;28.80;79.60
45491;DHT22;31237;45.586;13.782;2023-07-13T10:50:51;29.00;79.40
45491;DHT22;31237;45.586;13.782;2023-07-13T10:53:35;29.10;79.00
45491;DHT22;31237;45.586;13.782;2023-07-13T10:58:41;29.30;79.10
45491;DHT22;31237;45.586;13.782;2023-07-13T11:01:14;29.40;79.00
45491;DHT22;31237;45.586;13.782;2023-07-13T11:08:56;29.40;78.30
45491;DHT22;31237;45.586;13.782;2023-07-13T11:11:33;29.40;78.70
45491;DHT22;31237;45.586;13.782;2023-07-13T11:14:05;29.50;78.80
45491;DHT22;31237;45.586;13.782;2023-07-13T11:16:45;29.50;78.90
45491;DHT22;31237;45.586;13.782;2023-07-13T11:25:00;29.80;79.50
45491;DHT22;31237;45.586;13.782;2023-07-13T11:35:31;30.10;79.70
45491;DHT22;31237;45.586;13.782;2023-07-13T11:37:57;30.10;79.60
45491;DHT22;31237;45.586;13.782;2023-07-13T11:40:25;30.10;79.80
45491;DHT22;31237;45.586;13.782;2023-07-13T11:42:59;30.10;79.70
45491;DHT22;31237;45.586;13.782;2023-07-13T11:45:25;30.00;79.80
45491;DHT22;31237;45.586;13.782;2023-07-13T11:47:51;30.00;80.00
45491;DHT22;31237;45.586;13.782;2023-07-13T11:50:21;29.90;78.90
45491;DHT22;31237;45.586;13.782;2023-07-13T11:52:48;29.80;79.00
45491;DHT22;31237;45.586;13.782;2023-07-13T11:55:20;29.70;79.20
45491;DHT22;31237;45.586;13.782;2023-07-13T11:57:57;29.60;78.90
45491;DHT22;31237;45.586;13.782;2023-07-13T12:00:29;29.50;78.80
45491;DHT22;31237;45.586;13.782;2023-07-13T12:02:59;29.40;79.00
45491;DHT22;31237;45.586;13.782;2023-07-13T12:05:27;29.30;78.90
45491;DHT22;31237;45.586;13.782;2023-07-13T12:07:53;29.20;79.10
45491;DHT22;31237;45.586;13.782;2023-07-13T12:10:28;29.00;78.40
45491;DHT22;31237;45.586;13.782;2023-07-13T12:13:02;28.70;78.80
45491;DHT22;31237;45.586;13.782;2023-07-13T12:18:02;28.30;80.50
45491;DHT22;31237;45.586;13.782;2023-07-13T12:20:37;28.20;80.80
45491;DHT22;31237;45.586;13.782;2023-07-13T12:23:07;28.30;81.50
45491;DHT22;31237;45.586;13.782;2023-07-13T12:25:41;28.20;81.60
45491;DHT22;31237;45.586;13.782;2023-07-13T12:28:46;28.20;81.70
45491;DHT22;31237;45.586;13.782;2023-07-13T12:31:34;28.10;81.80
45491;DHT22;31237;45.586;13.782;2023-07-13T12:34:14;28.00;82.00
45491;DHT22;31237;45.586;13.782;2023-07-13T12:36:49;27.90;82.30
45491;DHT22;31237;45.586;13.782;2023-07-13T12:41:49;27.50;84.20
45491;DHT22;31237;45.586;13.782;2023-07-13T12:44:18;27.20;86.40
45491;DHT22;31237;45.586;13.782;2023-07-13T12:47:04;26.80;88.70
45491;DHT22;31237;45.586;13.782;2023-07-13T12:49:33;26.30;89.40
45491;DHT22;31237;45.586;13.782;2023-07-13T12:52:03;26.00;90.40
45491;DHT22;31237;45.586;13.782;2023-07-13T12:54:30;25.90;90.80
45491;DHT22;31237;45.586;13.782;2023-07-13T12:56:57;25.90;91.00
45491;DHT22;31237;45.586;13.782;2023-07-13T12:59:25;26.00;91.40
45491;DHT22;31237;45.586;13.782;2023-07-13T13:01:53;26.10;91.60
45491;DHT22;31237;45.586;13.782;2023-07-13T13:04:19;26.40;91.60
45491;DHT22;31237;45.586;13.782;2023-07-13T13:06:47;26.60;91.70
45491;DHT22;31237;45.586;13.782;2023-07-13T13:09:16;26.80;91.70
45491;DHT22;31237;45.586;13.782;2023-07-13T13:11:43;27.00;91.70
45491;DHT22;31237;45.586;13.782;2023-07-13T13:14:22;27.20;91.60
45491;DHT22;31237;45.586;13.782;2023-07-13T13:16:49;27.40;91.90
45491;DHT22;31237;45.586;13.782;2023-07-13T13:19:24;27.60;91.60
45491;DHT22;31237;45.586;13.782;2023-07-13T13:21:53;27.80;91.40
45491;DHT22;31237;45.586;13.782;2023-07-13T13:24:22;27.90;91.40
45491;DHT22;31237;45.586;13.782;2023-07-13T13:26:49;28.00;91.30
45491;DHT22;31237;45.586;13.782;2023-07-13T13:29:20;28.10;91.40
45491;DHT22;31237;45.586;13.782;2023-07-13T13:31:47;28.20;91.50
45491;DHT22;31237;45.586;13.782;2023-07-13T13:34:15;28.30;91.50
45491;DHT22;31237;45.586;13.782;2023-07-13T13:36:42;28.40;91.60
45491;DHT22;31237;45.586;13.782;2023-07-13T13:39:34;28.50;91.70
45491;DHT22;31237;45.586;13.782;2023-07-13T13:42:00;28.70;91.70
45491;DHT22;31237;45.586;13.782;2023-07-13T13:44:26;28.80;91.60
45491;DHT22;31237;45.586;13.782;2023-07-13T13:46:54;28.80;91.70
45491;DHT22;31237;45.586;13.782;2023-07-13T13:49:27;28.90;91.50
45491;DHT22;31237;45.586;13.782;2023-07-13T13:51:54;28.90;91.40
45491;DHT22;31237;45.586;13.782;2023-07-13T13:54:21;29.00;91.40
45491;DHT22;31237;45.586;13.782;2023-07-13T13:56:50;28.90;91.40
45491;DHT22;31237;45.586;13.782;2023-07-13T13:59:16;28.90;91.40
45491;DHT22;31237;45.586;13.782;2023-07-13T14:01:46;28.80;91.50
45491;DHT22;31237;45.586;13.782;2023-07-13T14:04:18;28.90;91.50
45491;DHT22;31237;45.586;13.782;2023-07-13T14:06:45;28.80;91.50
45491;DHT22;31237;45.586;13.782;2023-07-13T14:09:15;28.70;91.60
45491;DHT22;31237;45.586;13.782;2023-07-13T14:11:42;28.70;91.70
45491;DHT22;31237;45.586;13.782;2023-07-13T14:14:16;28.70;91.70
45491;DHT22;31237;45.586;13.782;2023-07-13T14:16:43;28.70;91.80
45491;DHT22;31237;45.586;13.782;2023-07-13T14:19:13;28.80;91.90
45491;DHT22;31237;45.586;13.782;2023-07-13T14:21:39;28.90;91.90
45491;DHT22;31237;45.586;13.782;2023-07-13T14:24:06;28.90;91.90
45491;DHT22;31237;45.586;13.782;2023-07-13T14:26:39;29.00;91.70
45491;DHT22;31237;45.586;13.782;2023-07-13T14:29:13;29.10;91.60
45491;DHT22;31237;45.586;13.782;2023-07-13T14:31:40;29.30;91.60
45491;DHT22;31237;45.586;13.782;2023-07-13T14:34:07;29.30;91.40
45491;DHT22;31237;45.586;13.782;2023-07-13T14:36:37;29.50;91.20
45491;DHT22;31237;45.586;13.782;2023-07-13T14:39:23;29.50;91.10
45491;DHT22;31237;45.586;13.782;2023-07-13T14:41:54;29.60;91.00
45491;DHT22;31237;45.586;13.782;2023-07-13T14:44:27;29.60;90.80
45491;DHT22;31237;45.586;13.782;2023-07-13T14:47:05;29.60;90.70
45491;DHT22;31237;45.586;13.782;2023-07-13T14:49:37;29.60;90.60
45491;DHT22;31237;45.586;13.782;2023-07-13T14:52:19;29.70;90.50
45491;DHT22;31237;45.586;13.782;2023-07-13T14:54:51;29.70;90.30
45491;DHT22;31237;45.586;13.782;2023-07-13T14:57:24;29.70;90.00
45491;DHT22;31237;45.586;13.782;2023-07-13T14:59:50;29.70;89.50
45491;DHT22;31237;45.586;13.782;2023-07-13T15:04:55;29.70;87.80
45491;DHT22;31237;45.586;13.782;2023-07-13T15:07:20;29.70;86.80
45491;DHT22;31237;45.586;13.782;2023-07-13T15:09:47;29.60;86.60
45491;DHT22;31237;45.586;13.782;2023-07-13T15:12:13;29.50;86.70
45491;DHT22;31237;45.586;13.782;2023-07-13T15:14:39;29.50;87.00
45491;DHT22;31237;45.586;13.782;2023-07-13T15:17:08;29.40;87.10
45491;DHT22;31237;45.586;13.782;2023-07-13T15:19:44;29.40;87.20
45491;DHT22;31237;45.586;13.782;2023-07-13T15:22:10;29.40;87.00
45491;DHT22;31237;45.586;13.782;2023-07-13T15:24:36;29.40;85.70
45491;DHT22;31237;45.586;13.782;2023-07-13T15:27:04;29.40;84.60
45491;DHT22;31237;45.586;13.782;2023-07-13T15:29:29;29.40;84.70
45491;DHT22;31237;45.586;13.782;2023-07-13T15:31:55;29.40;84.90
45491;DHT22;31237;45.586;13.782;2023-07-13T15:34:23;29.40;85.30
45491;DHT22;31237;45.586;13.782;2023-07-13T15:36:50;29.40;85.70
45491;DHT22;31237;45.586;13.782;2023-07-13T15:39:17;29.40;85.00
45491;DHT22;31237;45.586;13.782;2023-07-13T15:41:43;29.40;84.50
45491;DHT22;31237;45.586;13.782;2023-07-13T15:44:29;29.30;84.80
45491;DHT22;31237;45.586;13.782;2023-07-13T15:46:55;29.30;85.20
45491;DHT22;31237;45.586;13.782;2023-07-13T15:49:22;29.30;85.50
45491;DHT22;31237;45.586;13.782;2023-07-13T15:51:48;29.30;85.40
45491;DHT22;31237;45.586;13.782;2023-07-13T15:54:16;29.30;85.00
45491;DHT22;31237;45.586;13.782;2023-07-13T15:56:43;29.30;84.80
45491;DHT22;31237;45.586;13.782;2023-07-13T15:59:14;29.30;84.80
45491;DHT22;31237;45.586;13.782;2023-07-13T16:01:40;29.20;84.70
45491;DHT22;31237;45.586;13.782;2023-07-13T16:04:08;29.10;84.20
45491;DHT22;31237;45.586;13.782;2023-07-13T16:06:39;29.10;84.40
45491;DHT22;31237;45.586;13.782;2023-07-13T16:09:05;29.00;84.40
45491;DHT22;31237;45.586;13.782;2023-07-13T16:11:37;29.00;84.50
45491;DHT22;31237;45.586;13.782;2023-07-13T16:14:04;28.90;84.60